createdAt,value
2022-08-14T00:01:50.273Z,46.05
2022-08-14T00:06:59.892Z,45.83
2022-08-14T00:12:05.512Z,46.54
2022-08-14T00:17:29.625Z,47.53
2022-08-14T00:22:56.303Z,48.17
2022-08-14T00:28:00.466Z,48.48
2022-08-14T00:33:16.072Z,48.68
2022-08-14T00:38:22.435Z,48.54
2022-08-14T00:43:32.176Z,48.85
2022-08-14T00:48:40.993Z,49.64
2022-08-14T00:53:47.606Z,50.30
2022-08-14T00:58:54.971Z,51.19
2022-08-14T01:04:05.731Z,51.60
2022-08-14T01:09:11.757Z,51.72
2022-08-14T01:14:28.237Z,51.90
2022-08-14T01:19:53.849Z,52.97
2022-08-14T01:24:59.567Z,53.18
2022-08-14T01:30:06.867Z,53.99
2022-08-14T01:35:17.493Z,53.98
2022-08-14T01:40:33.225Z,54.67
2022-08-14T01:45:41.820Z,55.18
2022-08-14T01:50:46.626Z,55.84
2022-08-14T01:55:57.573Z,56.70
2022-08-14T02:01:02.940Z,57.21
2022-08-14T02:06:33.343Z,57.78
2022-08-14T02:11:35.198Z,58.32
2022-08-14T02:16:42.802Z,58.79
2022-08-14T02:21:51.119Z,58.60
2022-08-14T02:28:23.645Z,59.19
2022-08-14T02:32:36.179Z,59.68
2022-08-14T02:37:50.239Z,60.31
2022-08-14T02:42:57.748Z,60.69
2022-08-14T02:48:02.717Z,61.30
2022-08-14T02:53:07.555Z,61.66
2022-08-14T02:58:21.408Z,62.13
2022-08-14T03:03:35.463Z,62.74
2022-08-14T03:08:46.071Z,63.38
2022-08-14T03:13:54.172Z,63.86
2022-08-14T03:19:00.233Z,64.16
2022-08-14T03:24:21.284Z,64.00
2022-08-14T03:29:29.517Z,64.50
2022-08-14T03:34:52.582Z,64.25
2022-08-14T03:39:58.718Z,64.04
2022-08-14T03:45:25.102Z,64.25
2022-08-14T03:50:34.595Z,64.55
2022-08-14T03:55:39.275Z,64.75
2022-08-14T04:00:46.134Z,64.83
2022-08-14T04:05:50.536Z,64.63
2022-08-14T04:10:56.401Z,64.60
2022-08-14T04:16:05.045Z,65.24
2022-08-14T04:21:10.142Z,66.00
2022-08-14T04:26:27.475Z,66.38
2022-08-14T04:32:58.174Z,67.34
2022-08-14T04:37:32.895Z,67.65
2022-08-14T04:42:54.990Z,67.62
2022-08-14T04:48:39.086Z,66.91
2022-08-14T04:53:43.921Z,66.48
2022-08-14T04:58:49.871Z,66.23
2022-08-14T05:03:59.226Z,65.67
2022-08-14T05:09:04.569Z,64.83
2022-08-14T05:14:34.642Z,64.41
2022-08-14T05:19:44.256Z,63.48
2022-08-14T05:24:51.355Z,62.47
2022-08-14T05:29:57.380Z,61.81
2022-08-14T05:35:03.325Z,59.94
2022-08-14T05:40:10.142Z,58.27
2022-08-14T05:45:17.204Z,57.38
2022-08-14T05:50:23.115Z,56.45
2022-08-14T05:55:27.379Z,55.36
2022-08-14T06:00:37.161Z,53.90
2022-08-14T06:05:46.798Z,53.32
2022-08-14T06:11:03.066Z,52.59
2022-08-14T06:16:08.377Z,51.67
2022-08-14T06:21:15.765Z,50.34
2022-08-14T06:26:22.432Z,49.46
2022-08-14T06:31:26.785Z,47.99
2022-08-14T06:36:32.542Z,46.76
2022-08-14T06:41:58.217Z,45.29
2022-08-14T06:47:02.680Z,43.50
2022-08-14T06:52:08.813Z,41.37
2022-08-14T06:57:13.338Z,39.54
2022-08-14T07:02:36.158Z,39.64
2022-08-14T07:07:43.507Z,41.23
2022-08-14T07:13:02.164Z,41.30
2022-08-14T07:18:10.531Z,38.88
2022-08-14T07:23:20.990Z,35.95
2022-08-14T07:28:29.589Z,34.12
2022-08-14T07:33:42.053Z,33.33
2022-08-14T07:38:52.393Z,31.01
2022-08-14T07:43:57.739Z,30.43
2022-08-14T07:49:02.148Z,29.22
2022-08-14T07:54:11.366Z,27.92
2022-08-14T07:59:18.172Z,27.50
2022-08-14T08:04:27.488Z,26.18
2022-08-14T08:09:36.134Z,25.95
2022-08-14T08:14:55.452Z,26.00
2022-08-14T08:20:01.513Z,25.09
2022-08-14T08:25:11.444Z,24.73
2022-08-14T08:30:19.458Z,24.11
2022-08-14T08:35:46.398Z,24.25
2022-08-14T08:40:56.506Z,23.93
2022-08-14T08:46:08.978Z,23.03
2022-08-14T08:51:34.703Z,23.04
2022-08-14T08:56:43.703Z,23.03
2022-08-14T09:01:56.238Z,22.23
2022-08-14T09:07:10.162Z,22.14
2022-08-14T09:12:17.221Z,21.05
2022-08-14T09:17:25.978Z,20.27
2022-08-14T09:22:34.970Z,19.48
2022-08-14T09:27:42.386Z,19.17
2022-08-14T09:33:10.804Z,17.96
2022-08-14T09:38:29.439Z,16.91
2022-08-14T09:43:53.444Z,16.73
2022-08-14T09:49:02.957Z,16.69
2022-08-14T09:54:23.029Z,16.94
2022-08-14T09:59:40.562Z,17.12
2022-08-14T10:04:46.255Z,18.17
2022-08-14T10:10:00.011Z,18.43
2022-08-14T10:15:21.922Z,19.42
2022-08-14T10:20:40.451Z,18.13
2022-08-14T10:25:50.509Z,18.65
2022-08-14T10:30:56.224Z,17.98
2022-08-14T10:36:02.820Z,17.92
2022-08-14T10:41:13.630Z,18.10
2022-08-14T10:47:37.357Z,18.59
2022-08-14T10:52:05.882Z,21.25
2022-08-14T10:57:17.193Z,22.94
2022-08-14T11:02:45.017Z,23.19
2022-08-14T11:08:01.991Z,22.80
2022-08-14T11:13:21.301Z,23.03
2022-08-14T11:18:36.825Z,23.03
2022-08-14T11:23:53.771Z,22.03
2022-08-14T11:29:05.713Z,22.68
2022-08-14T11:34:32.083Z,23.51
2022-08-14T11:39:38.534Z,24.45
2022-08-14T11:44:46.055Z,25.14
2022-08-14T11:49:53.300Z,25.60
2022-08-14T11:55:01.342Z,25.58
2022-08-14T12:00:10.059Z,24.75
2022-08-14T12:05:31.848Z,23.31
2022-08-14T12:10:42.731Z,23.80
2022-08-14T12:15:58.661Z,23.81
2022-08-14T12:21:19.452Z,23.70
2022-08-14T12:26:39.357Z,22.56
2022-08-14T12:31:47.308Z,22.59
2022-08-14T12:37:06.174Z,22.75
2022-08-14T12:42:11.624Z,23.36
2022-08-14T12:47:31.719Z,23.90
2022-08-14T12:52:45.247Z,25.19
2022-08-14T12:58:29.204Z,26.55
2022-08-14T13:03:32.741Z,27.86
2022-08-14T13:08:46.070Z,28.41
2022-08-14T13:14:01.169Z,28.17
2022-08-14T13:19:05.971Z,27.87
2022-08-14T13:24:19.766Z,27.09
2022-08-14T13:29:28.171Z,27.79
2022-08-14T13:34:34.169Z,27.49
2022-08-14T13:39:40.354Z,27.98
2022-08-14T13:44:50.342Z,27.00
2022-08-14T13:49:57.106Z,26.87
2022-08-14T13:55:07.547Z,28.29
2022-08-14T14:00:15.455Z,28.92
2022-08-14T14:05:23.235Z,29.56
2022-08-14T14:10:29.371Z,30.71
2022-08-14T14:15:48.712Z,30.77
2022-08-14T14:21:03.354Z,30.46
2022-08-14T14:26:13.785Z,30.64
2022-08-14T14:31:23.902Z,30.63
2022-08-14T14:36:34.938Z,31.15
2022-08-14T14:41:44.016Z,31.60
2022-08-14T14:46:50.543Z,31.81
2022-08-14T14:51:55.929Z,32.79
2022-08-14T14:57:03.495Z,34.69
2022-08-14T15:02:09.687Z,35.64
2022-08-14T15:07:16.349Z,35.90
2022-08-14T15:12:56.653Z,35.93
2022-08-14T15:17:47.657Z,36.17
2022-08-14T15:23:47.452Z,37.10
2022-08-14T15:29:29.671Z,36.94
2022-08-14T15:35:29.616Z,37.26
2022-08-14T15:41:08.429Z,37.55
2022-08-14T15:46:41.286Z,38.19
2022-08-14T15:51:42.072Z,38.57
2022-08-14T15:58:01.382Z,39.30
2022-08-14T16:04:34.686Z,39.61
2022-08-14T16:11:01.199Z,40.33
2022-08-14T16:17:16.940Z,40.89
2022-08-14T16:23:13.872Z,41.47
2022-08-14T16:35:01.560Z,41.68
2022-08-14T16:41:52.569Z,42.52
2022-08-14T16:48:57.089Z,43.07
2022-08-14T16:55:50.965Z,43.15
2022-08-14T17:07:17.607Z,43.95
2022-08-14T17:14:00.554Z,44.39
2022-08-14T17:26:45.994Z,44.13
2022-08-14T17:32:28.192Z,43.82
2022-08-14T17:37:56.039Z,44.15
2022-08-14T17:43:02.816Z,44.55
2022-08-14T17:49:14.195Z,44.69
2022-08-14T17:53:53.600Z,45.35
2022-08-14T17:59:07.469Z,45.81
2022-08-14T18:04:28.302Z,46.33
2022-08-14T18:09:56.723Z,46.60
2022-08-14T18:15:15.868Z,47.33
2022-08-14T18:21:24.623Z,47.70
2022-08-14T18:25:57.217Z,48.84
2022-08-14T18:31:42.141Z,49.43
2022-08-14T18:36:55.475Z,50.56
2022-08-14T18:42:45.346Z,51.07
2022-08-14T18:48:16.172Z,51.60
2022-08-14T18:53:24.635Z,51.67
2022-08-14T18:58:47.490Z,51.73
2022-08-14T19:03:54.564Z,52.08
2022-08-14T19:09:00.977Z,52.46
2022-08-14T19:14:08.026Z,53.16
2022-08-14T19:19:15.700Z,53.69
2022-08-14T19:24:44.050Z,54.64
2022-08-14T19:29:51.805Z,54.68
2022-08-14T19:34:59.913Z,55.71
2022-08-14T19:40:15.648Z,55.87
2022-08-14T19:45:30.135Z,61.38
2022-08-14T19:50:41.193Z,61.48
2022-08-14T19:55:58.498Z,60.06
2022-08-14T20:01:08.520Z,59.02
2022-08-14T20:06:14.035Z,58.94
2022-08-14T20:11:43.019Z,58.87
2022-08-14T20:16:55.714Z,58.08
2022-08-14T20:22:35.068Z,58.32
2022-08-14T20:27:45.888Z,58.42
2022-08-14T20:32:55.033Z,59.56
2022-08-14T20:38:30.909Z,61.08
2022-08-14T20:43:53.056Z,62.54
2022-08-14T20:49:02.434Z,63.31
2022-08-14T20:54:14.162Z,63.78
2022-08-14T20:59:21.912Z,64.39
2022-08-14T21:04:32.740Z,64.97
2022-08-14T21:10:06.373Z,64.87
2022-08-14T21:15:20.216Z,65.39
2022-08-14T21:20:28.944Z,65.34
2022-08-14T21:25:35.602Z,64.78
2022-08-14T21:30:51.512Z,66.17
2022-08-14T21:36:07.925Z,67.74
2022-08-14T21:41:42.711Z,69.50
2022-08-14T21:46:53.571Z,70.08
2022-08-14T21:52:50.495Z,62.71
2022-08-14T21:57:55.828Z,60.57
2022-08-14T22:02:55.497Z,62.25
2022-08-14T22:08:07.439Z,62.58
2022-08-14T22:13:18.178Z,99.17
2022-08-14T22:18:23.190Z,100.00
2022-08-14T22:23:31.344Z,100.00
2022-08-14T22:28:35.886Z,100.00
2022-08-14T22:33:43.036Z,100.00
2022-08-14T22:38:49.910Z,100.00
2022-08-14T22:44:01.808Z,100.00
2022-08-14T22:49:16.216Z,100.00
2022-08-14T22:54:52.023Z,100.00
2022-08-14T22:59:58.101Z,100.00
2022-08-14T23:05:04.717Z,100.00
2022-08-14T23:10:31.902Z,100.00
2022-08-14T23:15:38.244Z,100.00
2022-08-14T23:20:47.565Z,100.00
2022-08-14T23:26:00.555Z,100.00
2022-08-14T23:31:34.932Z,100.00
2022-08-14T23:36:53.427Z,100.00
2022-08-14T23:42:04.615Z,100.00
2022-08-14T23:47:26.335Z,100.00
2022-08-14T23:53:06.330Z,100.00
2022-08-14T23:58:03.170Z,100.00
